Time;durP1;ratioP1;P1;durP2;ratioP2;P2;SDS_P1;SDS_P2;PMS_P1;PMS_P2;Temp;Humidity;BMP_temperature;BMP_pressure;BME280_temperature;BME280_humidity;BME280_pressure;Samples;Min_cycle;Max_cycle;Signal;HPM_P1;HPM_P2
2023/09/10 00:01:40;;;;;;;12.27;10.73;;;;;;;22.35;84.65;157113.00;5068473;28;20464;-91
2023/09/10 00:04:07;;;;;;;13.70;12.10;;;;;;;22.36;85.48;157115.63;5065937;28;20450;-92
2023/09/10 00:06:34;;;;;;;12.50;11.40;;;;;;;22.30;85.04;157101.25;5068192;28;20445;-92
2023/09/10 00:09:03;;;;;;;11.60;10.40;;;;;;;22.21;84.65;157077.75;5060143;28;20457;-93
2023/09/10 00:11:38;;;;;;;13.27;12.00;;;;;;;22.17;85.28;157066.00;5059226;28;20453;-92
2023/09/10 00:14:08;;;;;;;12.60;11.17;;;;;;;22.11;85.24;157050.31;5067818;28;20564;-92
2023/09/10 00:16:39;;;;;;;12.10;10.87;;;;;;;22.03;85.36;157029.47;5052986;28;20500;-92
2023/09/10 00:19:15;;;;;;;12.80;10.73;;;;;;;21.99;86.26;157019.00;5051355;28;20931;-92
2023/09/10 00:21:46;;;;;;;12.30;11.20;;;;;;;21.93;86.92;157003.31;5058160;28;20434;-92
2023/09/10 00:24:14;;;;;;;12.53;11.23;;;;;;;21.93;86.72;157003.31;5072930;28;20433;-92
2023/09/10 00:26:42;;;;;;;11.80;10.70;;;;;;;21.88;86.69;156990.25;5070520;28;20445;-92
2023/09/10 00:29:11;;;;;;;13.33;11.50;;;;;;;21.87;86.89;156988.94;5060696;28;20476;-91
2023/09/10 00:31:57;;;;;;;12.20;11.00;;;;;;;21.82;86.67;156977.16;5058683;28;20461;-92
2023/09/10 00:34:25;;;;;;;12.40;11.20;;;;;;;21.78;87.38;156966.75;5053844;28;20486;-92
2023/09/10 00:37:01;;;;;;;12.67;11.37;;;;;;;21.72;87.43;156951.06;5067956;28;20829;-92
2023/09/10 00:39:30;;;;;;;12.40;11.10;;;;;;;21.67;87.69;156936.69;5071951;28;20940;-92
2023/09/10 00:42:01;;;;;;;11.40;10.30;;;;;;;21.65;87.99;156931.47;5060888;28;20471;-92
2023/09/10 00:44:35;;;;;;;11.90;10.40;;;;;;;21.63;88.50;156927.53;5068035;28;20487;-92
2023/09/10 00:47:02;;;;;;;14.50;11.17;;;;;;;21.62;88.29;156924.97;5058574;28;20464;-93
2023/09/10 00:49:29;;;;;;;11.93;10.77;;;;;;;21.60;88.96;156918.44;5070046;28;20932;-92
2023/09/10 00:51:56;;;;;;;12.27;11.07;;;;;;;21.57;89.33;156911.91;5063977;28;20532;-92
2023/09/10 00:54:25;;;;;;;11.60;10.53;;;;;;;21.58;89.67;156913.16;5074489;28;20449;-92
2023/09/10 00:56:55;;;;;;;12.83;11.63;;;;;;;21.55;89.40;156906.66;5070013;28;20481;-93
2023/09/10 00:59:25;;;;;;;12.67;11.43;;;;;;;21.55;88.99;156906.66;5054419;28;20508;-92
2023/09/10 01:01:55;;;;;;;12.13;10.93;;;;;;;21.55;89.59;156905.38;5063810;28;20441;-91
2023/09/10 01:04:23;;;;;;;11.80;10.70;;;;;;;21.48;89.25;156887.06;5067147;28;20470;-92
2023/09/10 01:06:52;;;;;;;13.67;12.00;;;;;;;21.45;89.31;156880.53;5061020;28;20878;-90
2023/09/10 01:09:28;;;;;;;11.70;10.50;;;;;;;21.46;89.12;156881.88;5067411;28;20485;-91
2023/09/10 01:12:03;;;;;;;12.37;11.07;;;;;;;21.47;89.23;156885.75;5054359;28;20458;-92
2023/09/10 01:14:35;;;;;;;13.57;11.10;;;;;;;21.48;88.96;156888.38;5063370;28;20460;-92
2023/09/10 01:17:08;;;;;;;13.70;10.70;;;;;;;21.58;88.99;156914.47;5068180;28;20984;-92
2023/09/10 01:20:00;;;;;;;12.80;11.60;;;;;;;21.64;88.07;156930.16;5073788;28;20441;-90
2023/09/10 01:22:35;;;;;;;13.40;12.00;;;;;;;21.63;87.70;156927.53;5075161;28;20453;-91
2023/09/10 01:25:04;;;;;;;13.30;11.10;;;;;;;21.62;87.65;156924.97;5092241;28;20453;-92
2023/09/10 01:27:31;;;;;;;13.73;11.07;;;;;;;21.60;87.67;156919.75;5069961;28;20488;-91
2023/09/10 01:30:09;;;;;;;13.27;11.70;;;;;;;21.53;87.78;156901.44;5076018;28;20445;-91
2023/09/10 01:32:45;;;;;;;12.40;11.10;;;;;;;21.46;88.67;156883.19;5061976;28;20835;-92
2023/09/10 01:35:33;;;;;;;12.30;11.10;;;;;;;21.50;89.09;156892.34;5068949;28;20906;-92
2023/09/10 01:38:07;;;;;;;13.37;11.97;;;;;;;21.49;88.80;156891.03;5065753;28;20449;-92
2023/09/10 01:40:43;;;;;;;13.37;12.00;;;;;;;21.42;88.36;156872.72;5066947;28;20553;-92
2023/09/10 01:43:12;;;;;;;13.83;12.53;;;;;;;21.36;88.93;156855.75;5069282;28;20445;-92
2023/09/10 01:45:44;;;;;;;17.23;11.30;;;;;;;21.30;89.37;156840.09;5056948;28;20445;-92
2023/09/10 01:48:19;;;;;;;11.57;10.37;;;;;;;21.25;91.03;156828.34;5062005;28;20477;-92
2023/09/10 01:50:49;;;;;;;11.60;10.50;;;;;;;21.23;91.14;156823.16;5054044;28;20918;-92
2023/09/10 01:53:16;;;;;;;11.57;10.40;;;;;;;21.18;90.76;156810.09;5053980;28;20825;-92
2023/09/10 01:55:56;;;;;;;15.67;10.77;;;;;;;21.13;91.22;156798.31;5057267;28;20474;-92
2023/09/10 01:58:26;;;;;;;12.23;9.80;;;;;;;21.12;91.43;156794.44;5065495;28;20477;-92
2023/09/10 02:00:55;;;;;;;14.20;11.07;;;;;;;21.09;91.90;156786.59;5082981;28;20975;-91
2023/09/10 02:03:29;;;;;;;17.77;11.87;;;;;;;21.03;91.09;156772.19;5073226;28;20461;-91
2023/09/10 02:06:11;;;;;;;11.97;10.87;;;;;;;21.00;92.03;156763.03;5077123;28;20462;-91
2023/09/10 02:08:45;;;;;;;12.00;10.70;;;;;;;20.93;91.83;156746.09;5069745;28;21036;-92
2023/09/10 02:11:16;;;;;;;11.47;10.37;;;;;;;20.91;92.21;156740.88;5064975;28;20468;-91
2023/09/10 02:13:48;;;;;;;11.80;10.70;;;;;;;20.89;92.73;156735.63;5078872;28;20831;-92
2023/09/10 02:16:15;;;;;;;13.53;12.10;;;;;;;20.85;93.18;156725.22;5067673;28;20476;-91
2023/09/10 02:18:44;;;;;;;13.93;12.00;;;;;;;20.83;93.27;156720.00;5057713;28;20503;-92
2023/09/10 02:21:18;;;;;;;13.47;12.17;;;;;;;20.79;92.44;156708.22;5061028;28;20457;-91
2023/09/10 02:23:47;;;;;;;15.63;12.80;;;;;;;20.74;93.43;156696.50;5064092;28;20450;-91
2023/09/10 02:26:21;;;;;;;14.00;12.50;;;;;;;20.71;93.61;156687.34;5064611;28;20446;-92
2023/09/10 02:28:49;;;;;;;13.73;12.33;;;;;;;20.70;94.00;156684.78;5062440;28;20477;-91
2023/09/10 02:31:23;;;;;;;15.80;14.17;;;;;;;20.68;94.33;156679.56;5072757;28;20438;-92
2023/09/10 02:33:50;;;;;;;16.87;13.40;;;;;;;20.66;94.92;156675.63;5073184;28;20484;-92
2023/09/10 02:36:19;;;;;;;16.40;14.37;;;;;;;20.65;94.75;156674.31;5067188;28;20962;-92
2023/09/10 02:38:52;;;;;;;14.97;13.47;;;;;;;20.64;95.39;156670.41;5053239;28;20446;-91
2023/09/10 02:41:23;;;;;;;15.70;13.90;;;;;;;20.62;95.46;156666.47;5053347;28;20465;-91
2023/09/10 02:43:55;;;;;;;16.97;15.00;;;;;;;20.59;95.87;156657.38;5052593;28;20452;-91
2023/09/10 02:46:23;;;;;;;16.10;14.07;;;;;;;20.60;95.49;156659.94;5054978;28;20437;-87
2023/09/10 02:48:50;;;;;;;18.60;13.97;;;;;;;20.55;95.72;156648.22;5067516;28;21279;-87
2023/09/10 02:51:17;;;;;;;15.13;13.73;;;;;;;20.52;95.67;156640.41;5052078;28;20539;-87
2023/09/10 02:53:43;;;;;;;18.03;14.57;;;;;;;20.48;96.02;156628.66;5068213;28;20453;-75
2023/09/10 02:56:10;;;;;;;15.37;13.97;;;;;;;20.48;96.74;156628.66;5075877;28;20510;-75
2023/09/10 02:58:39;;;;;;;15.40;13.80;;;;;;;20.43;96.68;156616.94;5066627;28;20953;-75
2023/09/10 03:01:06;;;;;;;16.97;15.20;;;;;;;20.40;97.19;156607.78;5072312;28;20461;-76
2023/09/10 03:03:35;;;;;;;15.60;14.10;;;;;;;20.42;97.16;156614.31;5069201;28;20442;-76
2023/09/10 03:06:02;;;;;;;15.93;14.37;;;;;;;20.44;97.11;156619.53;5088593;28;20472;-75
2023/09/10 03:08:35;;;;;;;19.37;14.33;;;;;;;20.41;97.18;156610.44;5077562;28;20812;-76
2023/09/10 03:11:03;;;;;;;16.10;13.97;;;;;;;20.36;96.83;156597.38;5064865;28;20827;-76
2023/09/10 03:13:29;;;;;;;17.10;15.40;;;;;;;20.35;96.82;156596.06;5074694;28;20445;-76
2023/09/10 03:16:00;;;;;;;15.30;13.80;;;;;;;20.30;97.83;156583.03;5060564;28;20457;-75
2023/09/10 03:18:27;;;;;;;16.07;14.40;;;;;;;20.28;98.08;156577.78;5074930;28;20914;-75
2023/09/10 03:20:54;;;;;;;15.73;14.23;;;;;;;20.28;98.06;156576.50;5072289;28;20458;-76
2023/09/10 03:23:21;;;;;;;17.03;15.33;;;;;;;20.27;98.71;156575.19;5056763;28;21030;-76
2023/09/10 03:25:47;;;;;;;18.50;14.87;;;;;;;20.25;98.79;156570.00;5072316;28;20477;-76
2023/09/10 03:28:14;;;;;;;16.73;15.20;;;;;;;20.26;99.27;156572.56;5082667;28;20445;-76
2023/09/10 03:30:41;;;;;;;21.40;15.90;;;;;;;20.26;99.67;156572.56;5064664;28;20453;-76
2023/09/10 03:33:09;;;;;;;20.00;16.43;;;;;;;20.30;98.75;156583.03;5058381;28;20458;-75
2023/09/10 03:35:35;;;;;;;17.17;15.47;;;;;;;20.35;98.63;156594.75;5072540;28;20520;-75
2023/09/10 03:38:02;;;;;;;19.63;15.70;;;;;;;20.34;98.05;156592.13;5079588;28;20465;-75
2023/09/10 03:40:29;;;;;;;19.70;17.77;;;;;;;20.34;98.85;156593.44;5075585;28;20447;-76
2023/09/10 03:42:55;;;;;;;18.47;16.57;;;;;;;20.35;98.86;156596.06;5061101;28;20450;-76
2023/09/10 03:45:22;;;;;;;21.27;17.33;;;;;;;20.32;98.79;156586.94;5086908;28;20821;-76
2023/09/10 03:47:48;;;;;;;20.10;18.10;;;;;;;20.26;99.39;156572.56;5076868;28;20469;-75
2023/09/10 03:50:16;;;;;;;17.60;15.77;;;;;;;20.22;99.66;156562.13;5087425;28;20473;-76
2023/09/10 03:52:43;;;;;;;23.43;17.03;;;;;;;20.19;99.54;156554.28;5060806;28;20486;-75
2023/09/10 03:55:10;;;;;;;18.30;16.50;;;;;;;20.19;99.56;156554.28;5070480;28;20461;-75
2023/09/10 03:57:37;;;;;;;20.57;16.20;;;;;;;20.19;99.53;156552.97;5057332;28;20469;-75
2023/09/10 04:00:05;;;;;;;19.13;16.70;;;;;;;20.17;99.92;156549.06;5060194;28;21058;-75
2023/09/10 04:02:38;;;;;;;18.90;17.00;;;;;;;20.13;99.51;156538.63;5085919;28;20988;-76
2023/09/10 04:05:06;;;;;;;19.07;17.07;;;;;;;20.13;99.60;156537.31;5064003;28;21262;-76
2023/09/10 04:07:34;;;;;;;18.43;16.47;;;;;;;20.12;99.52;156536.00;5066000;28;20433;-76
2023/09/10 04:10:00;;;;;;;17.53;15.73;;;;;;;20.14;99.58;156539.94;5082405;28;20559;-76
2023/09/10 04:12:27;;;;;;;17.87;16.17;;;;;;;20.16;99.50;156546.44;5060410;28;20469;-77
2023/09/10 04:14:53;;;;;;;18.20;16.40;;;;;;;20.15;98.66;156542.56;5076782;28;20989;-76
2023/09/10 04:17:20;;;;;;;18.40;16.60;;;;;;;20.13;99.14;156538.63;5085754;28;20484;-76
2023/09/10 04:19:47;;;;;;;20.23;16.47;;;;;;;20.10;98.97;156529.47;5088610;28;20449;-76
2023/09/10 04:22:14;;;;;;;18.43;16.57;;;;;;;20.08;98.31;156525.59;5078463;28;20455;-76
2023/09/10 04:24:42;;;;;;;17.77;16.10;;;;;;;20.07;98.62;156522.94;5055052;28;20446;-76
2023/09/10 04:27:09;;;;;;;18.87;16.83;;;;;;;20.04;99.62;156515.19;5078639;28;20453;-76
2023/09/10 04:29:36;;;;;;;18.97;16.90;;;;;;;20.00;99.47;156504.72;5079675;28;20455;-76
2023/09/10 04:32:02;;;;;;;17.03;15.27;;;;;;;19.98;99.69;156500.81;5064674;28;20449;-75
2023/09/10 04:34:29;;;;;;;18.27;16.57;;;;;;;19.99;99.29;156502.09;5068377;28;20477;-76
2023/09/10 04:36:56;;;;;;;18.00;16.10;;;;;;;20.01;98.57;156507.34;5064126;28;20550;-76
2023/09/10 04:39:22;;;;;;;19.07;16.50;;;;;;;19.95;99.00;156493.00;5071744;28;20991;-76
2023/09/10 04:41:50;;;;;;;17.87;15.93;;;;;;;19.87;99.64;156472.13;5083109;28;20447;-76
2023/09/10 04:44:18;;;;;;;18.30;16.57;;;;;;;19.79;100.00;156449.94;5064466;28;20826;-76
2023/09/10 04:46:45;;;;;;;15.53;14.03;;;;;;;19.72;100.00;156431.72;5066639;28;20785;-76
2023/09/10 04:49:12;;;;;;;17.70;15.80;;;;;;;19.71;100.00;156429.09;5082033;28;20503;-75
2023/09/10 04:51:39;;;;;;;17.10;15.33;;;;;;;19.71;100.00;156429.09;5083482;28;20437;-76
2023/09/10 04:54:05;;;;;;;17.40;15.60;;;;;;;19.72;100.00;156431.72;5085804;28;20453;-76
2023/09/10 04:56:32;;;;;;;15.83;14.30;;;;;;;19.72;99.79;156431.72;5085182;28;20581;-76
2023/09/10 04:59:01;;;;;;;19.13;15.00;;;;;;;19.76;99.19;156442.13;5084068;28;20472;-76
2023/09/10 05:01:28;;;;;;;18.30;14.87;;;;;;;19.77;99.45;156444.75;5056600;28;20468;-75
2023/09/10 05:03:54;;;;;;;17.70;15.47;;;;;;;19.75;99.70;156440.81;5059813;28;20445;-77
2023/09/10 05:06:21;;;;;;;18.97;15.00;;;;;;;19.74;99.91;156438.22;5072391;28;20450;-76
2023/09/10 05:08:48;;;;;;;18.80;16.00;;;;;;;19.75;99.93;156439.56;5072314;28;20449;-76
2023/09/10 05:11:15;;;;;;;18.37;14.40;;;;;;;19.78;99.73;156447.31;5057641;28;20833;-77
2023/09/10 05:13:42;;;;;;;18.17;15.13;;;;;;;19.80;99.80;156452.59;5076794;28;20453;-77
2023/09/10 05:16:10;;;;;;;16.53;14.83;;;;;;;19.79;99.60;156449.94;5076415;28;20579;-77
2023/09/10 05:18:36;;;;;;;16.20;14.23;;;;;;;19.80;100.00;156452.59;5064708;28;20480;-77
2023/09/10 05:21:03;;;;;;;18.30;15.40;;;;;;;19.80;100.00;156452.59;5059075;28;20460;-76
2023/09/10 05:23:30;;;;;;;15.90;13.50;;;;;;;19.80;99.69;156452.59;5058259;28;20452;-75
2023/09/10 05:26:01;;;;;;;15.67;14.20;;;;;;;19.84;99.91;156464.31;5075457;28;20461;-75
2023/09/10 05:28:27;;;;;;;16.27;14.00;;;;;;;19.85;99.92;156465.63;5073956;28;20984;-75
2023/09/10 05:30:54;;;;;;;15.43;13.83;;;;;;;19.87;99.63;156472.13;5059500;28;20458;-75
2023/09/10 05:33:22;;;;;;;19.77;14.87;;;;;;;19.92;99.48;156483.84;5076458;28;20200;-74
2023/09/10 05:35:55;;;;;;;18.93;14.13;;;;;;;19.97;99.36;156496.88;5074438;28;21717;-75
2023/09/10 05:38:24;;;;;;;15.23;13.60;;;;;;;19.98;99.37;156500.81;5075294;28;20473;-75
2023/09/10 05:40:50;;;;;;;16.07;14.40;;;;;;;20.04;99.31;156515.19;5058883;28;20450;-75
2023/09/10 05:43:17;;;;;;;14.57;13.07;;;;;;;20.05;99.30;156519.06;5077182;28;20576;-75
2023/09/10 05:45:44;;;;;;;17.30;12.80;;;;;;;20.07;99.32;156521.69;5079596;28;20538;-75
2023/09/10 05:48:12;;;;;;;14.53;12.90;;;;;;;20.13;98.67;156537.31;5073835;28;20449;-75
2023/09/10 05:50:42;;;;;;;13.90;12.50;;;;;;;20.16;98.05;156546.44;5057816;28;20545;-75
2023/09/10 05:53:09;;;;;;;14.60;13.17;;;;;;;20.25;98.89;156570.00;5074980;28;20488;-76
2023/09/10 05:55:39;;;;;;;15.40;13.80;;;;;;;20.31;98.80;156585.63;5073685;28;20453;-76
2023/09/10 05:58:09;;;;;;;13.40;12.10;;;;;;;20.39;98.97;156605.16;5078216;28;20863;-76
2023/09/10 06:00:35;;;;;;;13.40;12.17;;;;;;;20.49;97.37;156632.56;5073896;28;20473;-75
2023/09/10 06:03:03;;;;;;;13.73;12.33;;;;;;;20.58;96.62;156654.75;5073511;28;21193;-75
2023/09/10 06:05:30;;;;;;;17.93;13.53;;;;;;;20.67;96.55;156676.94;5057178;28;20441;-76
2023/09/10 06:07:58;;;;;;;14.83;12.30;;;;;;;20.81;96.72;156714.75;5073447;28;20862;-76
2023/09/10 06:10:25;;;;;;;15.80;13.10;;;;;;;20.99;96.42;156760.44;5057910;28;20445;-76
2023/09/10 06:12:52;;;;;;;13.63;12.23;;;;;;;21.13;95.20;156797.00;5057330;28;20470;-76
2023/09/10 06:15:21;;;;;;;14.53;12.93;;;;;;;21.30;94.49;156840.09;5057019;28;20474;-76
2023/09/10 06:17:49;;;;;;;14.23;12.77;;;;;;;21.53;93.77;156901.44;5057533;28;20504;-76
2023/09/10 06:20:15;;;;;;;14.30;12.90;;;;;;;21.67;92.28;156936.69;5075377;28;20473;-76
2023/09/10 06:22:42;;;;;;;14.27;12.87;;;;;;;21.70;91.25;156945.84;5074104;28;20465;-75
2023/09/10 06:25:14;;;;;;;14.20;12.77;;;;;;;21.70;91.26;156945.84;5059829;28;20466;-76
2023/09/10 06:27:40;;;;;;;14.90;13.50;;;;;;;21.71;91.11;156948.44;5090303;28;20819;-76
2023/09/10 06:30:08;;;;;;;16.67;14.90;;;;;;;21.77;91.33;156964.09;5058262;28;20553;-76
2023/09/10 06:32:34;;;;;;;14.70;13.17;;;;;;;21.77;91.20;156964.09;5075194;28;20465;-75
2023/09/10 06:35:01;;;;;;;15.77;13.80;;;;;;;21.70;90.60;156945.84;5073017;28;20480;-76
2023/09/10 06:37:31;;;;;;;15.40;13.80;;;;;;;21.75;91.65;156957.59;5058979;28;20475;-76
2023/09/10 06:39:59;;;;;;;15.37;13.77;;;;;;;21.93;91.65;157003.31;5074137;28;20818;-75
2023/09/10 06:42:29;;;;;;;14.50;13.00;;;;;;;22.16;90.27;157063.41;5073070;28;20450;-75
2023/09/10 06:45:13;;;;;;;18.47;13.77;;;;;;;22.40;89.40;157127.38;5072984;28;20459;-75
2023/09/10 06:47:40;;;;;;;14.83;13.33;;;;;;;22.62;88.41;157182.25;5076146;28;20452;-75
2023/09/10 06:50:07;;;;;;;14.63;13.17;;;;;;;22.84;87.09;157241.13;5056112;28;20453;-75
2023/09/10 06:52:34;;;;;;;16.67;15.03;;;;;;;23.00;85.48;157281.63;5072657;28;20476;-75
2023/09/10 06:55:02;;;;;;;16.20;14.63;;;;;;;23.18;84.77;157328.66;5071542;28;20450;-75
2023/09/10 06:57:30;;;;;;;16.30;14.80;;;;;;;23.38;83.67;157379.63;5073892;28;20542;-76
2023/09/10 06:59:57;;;;;;;18.60;16.70;;;;;;;23.53;82.93;157418.88;5079278;28;20540;-76
2023/09/10 07:02:25;;;;;;;18.20;16.37;;;;;;;23.68;82.07;157456.78;5069988;28;20449;-76
2023/09/10 07:04:51;;;;;;;17.03;15.50;;;;;;;23.81;81.45;157492.06;5055017;28;20485;-76
2023/09/10 07:07:18;;;;;;;16.93;15.20;;;;;;;23.93;81.17;157523.47;5079771;28;20555;-76
2023/09/10 07:09:44;;;;;;;16.80;15.20;;;;;;;24.06;80.09;157557.47;5076460;28;20453;-76
2023/09/10 07:12:11;;;;;;;16.10;14.50;;;;;;;24.15;79.84;157579.72;5075286;28;20546;-75
2023/09/10 07:14:40;;;;;;;17.17;15.60;;;;;;;24.36;79.42;157633.38;5074536;28;20446;-76
2023/09/10 07:17:06;;;;;;;17.00;15.23;;;;;;;24.59;78.08;157693.53;5075110;28;20452;-75
2023/09/10 07:19:36;;;;;;;15.47;14.00;;;;;;;24.79;79.17;157745.88;5071132;28;20517;-75
2023/09/10 07:22:03;;;;;;;16.50;15.00;;;;;;;24.95;78.57;157787.75;5068538;28;20454;-76
2023/09/10 07:24:30;;;;;;;16.23;14.73;;;;;;;25.03;78.29;157808.69;5069346;28;20438;-78
2023/09/10 07:26:58;;;;;;;15.60;14.20;;;;;;;25.17;77.24;157845.34;5075112;28;20452;-77
2023/09/10 07:29:25;;;;;;;15.00;13.30;;;;;;;25.36;76.88;157895.03;5070267;28;21046;-77
2023/09/10 07:31:53;;;;;;;15.43;13.87;;;;;;;25.46;76.39;157918.63;5067611;28;20546;-77
2023/09/10 07:34:20;;;;;;;16.57;14.90;;;;;;;25.43;75.97;157912.09;5088898;28;20461;-77
2023/09/10 07:36:47;;;;;;;15.47;13.97;;;;;;;25.56;75.85;157944.84;5072163;28;20458;-77
2023/09/10 07:39:14;;;;;;;15.47;13.90;;;;;;;25.80;75.73;158007.69;5075533;28;20508;-78
2023/09/10 07:41:41;;;;;;;15.67;13.77;;;;;;;26.02;75.20;158066.63;5072887;28;20445;-77
2023/09/10 07:44:07;;;;;;;15.43;13.93;;;;;;;26.16;73.88;158101.97;5070414;28;20452;-77
2023/09/10 07:46:34;;;;;;;15.57;13.97;;;;;;;26.12;73.96;158091.47;5055374;28;20495;-77
2023/09/10 07:49:02;;;;;;;14.70;13.30;;;;;;;26.15;73.40;158098.06;5075108;28;20454;-77
2023/09/10 07:51:29;;;;;;;14.47;12.97;;;;;;;26.21;73.92;158115.06;5073789;28;20468;-77
2023/09/10 07:53:56;;;;;;;14.10;12.80;;;;;;;26.40;73.71;158164.84;5071410;28;20510;-77
2023/09/10 07:56:22;;;;;;;14.80;13.30;;;;;;;26.53;73.31;158198.91;5071572;28;20979;-77
2023/09/10 07:58:49;;;;;;;15.47;14.07;;;;;;;26.63;72.32;158222.50;5075605;28;20569;-77
2023/09/10 08:01:16;;;;;;;14.27;12.70;;;;;;;26.72;71.85;158246.03;5070224;28;20790;-77
2023/09/10 08:03:42;;;;;;;14.50;13.17;;;;;;;26.73;71.52;158248.69;5072745;28;20456;-77
2023/09/10 08:06:10;;;;;;;14.13;12.77;;;;;;;26.72;71.54;158246.03;5073724;28;20453;-77
2023/09/10 08:08:37;;;;;;;13.40;12.20;;;;;;;26.79;71.32;158264.47;5073930;28;20525;-77
2023/09/10 08:11:03;;;;;;;13.47;12.30;;;;;;;26.81;71.59;158269.69;5060393;28;20466;-77
2023/09/10 08:13:30;;;;;;;14.10;12.53;;;;;;;26.77;71.85;158260.50;5072476;28;20441;-77
2023/09/10 08:15:56;;;;;;;13.43;12.13;;;;;;;26.91;71.62;158295.88;5071133;28;20437;-77
2023/09/10 08:18:23;;;;;;;14.23;12.77;;;;;;;26.96;71.41;158308.97;5073401;28;20483;-76
2023/09/10 08:20:50;;;;;;;13.50;12.27;;;;;;;27.06;70.72;158336.50;5069525;28;20450;-77
2023/09/10 08:23:18;;;;;;;12.70;11.43;;;;;;;26.92;70.69;158299.84;5066512;28;20800;-77
2023/09/10 08:25:44;;;;;;;12.23;11.10;;;;;;;26.91;71.57;158297.19;5068930;28;20848;-77
2023/09/10 08:28:11;;;;;;;12.50;11.23;;;;;;;26.99;71.03;158318.16;5071548;28;20443;-77
2023/09/10 08:30:38;;;;;;;13.03;11.70;;;;;;;27.14;71.12;158357.44;5069855;28;20449;-77
2023/09/10 08:33:07;;;;;;;12.43;11.33;;;;;;;27.29;70.19;158395.47;5075559;28;20461;-77
2023/09/10 08:35:47;;;;;;;13.17;11.97;;;;;;;27.26;69.93;158386.28;5073439;28;20827;-77
2023/09/10 08:38:14;;;;;;;13.00;11.70;;;;;;;27.17;70.29;158364.00;5055365;28;20483;-77
2023/09/10 08:40:52;;;;;;;13.53;12.30;;;;;;;27.08;71.11;158341.75;5056262;28;21063;-77
2023/09/10 08:43:23;;;;;;;17.40;12.20;;;;;;;27.24;70.48;158381.06;5077620;28;20448;-77
2023/09/10 08:45:51;;;;;;;13.53;12.23;;;;;;;27.23;70.34;158379.75;5092824;28;20479;-77
2023/09/10 08:48:19;;;;;;;13.30;12.00;;;;;;;27.27;69.50;158388.94;5076669;28;20477;-77
2023/09/10 08:50:47;;;;;;;12.87;11.57;;;;;;;27.29;69.28;158395.47;5077254;28;20461;-77
2023/09/10 08:53:14;;;;;;;12.90;11.70;;;;;;;27.23;68.95;158379.75;5079421;28;20555;-77
2023/09/10 08:55:43;;;;;;;12.27;11.10;;;;;;;27.20;69.83;158373.19;5077415;28;20445;-77
2023/09/10 08:58:12;;;;;;;12.10;10.90;;;;;;;27.10;71.00;158347.00;5079146;28;20460;-77
2023/09/10 09:00:39;;;;;;;12.80;11.47;;;;;;;27.09;71.01;158344.34;5075512;28;21001;-77
2023/09/10 09:03:06;;;;;;;13.10;11.93;;;;;;;27.14;70.70;158356.13;5081493;28;20529;-77
2023/09/10 09:05:36;;;;;;;13.53;12.33;;;;;;;27.02;71.52;158324.72;5079265;28;20456;-76
2023/09/10 09:08:09;;;;;;;12.50;11.50;;;;;;;26.88;71.14;158289.34;5077065;28;20463;-76
2023/09/10 09:10:59;;;;;;;13.00;11.90;;;;;;;26.84;72.00;158278.88;5059870;28;20453;-76
2023/09/10 09:13:28;;;;;;;12.10;11.10;;;;;;;26.82;72.15;158272.31;5077975;28;20465;-76
2023/09/10 09:15:55;;;;;;;13.67;11.70;;;;;;;26.81;71.16;158271.00;5076692;28;20461;-77
2023/09/10 09:18:22;;;;;;;13.00;11.70;;;;;;;26.80;71.60;158268.38;5080308;28;20472;-76
2023/09/10 09:20:51;;;;;;;13.13;11.90;;;;;;;26.75;70.81;158253.91;5079730;28;20504;-76
2023/09/10 09:23:43;;;;;;;13.70;12.53;;;;;;;26.69;71.62;158238.22;5077143;28;20446;-76
2023/09/10 09:26:11;;;;;;;14.63;11.40;;;;;;;26.73;67.99;158248.69;5076259;28;20452;-76
2023/09/10 09:28:39;;;;;;;12.00;11.00;;;;;;;26.54;68.76;158200.22;5073392;28;20547;-76
2023/09/10 09:31:08;;;;;;;11.37;10.27;;;;;;;26.54;68.74;158201.53;5077022;28;20449;-76
2023/09/10 09:33:34;;;;;;;11.20;10.10;;;;;;;26.56;67.63;158205.44;5073991;28;20821;-76
2023/09/10 09:36:06;;;;;;;10.60;9.70;;;;;;;26.60;65.95;158217.25;5074522;28;20484;-76
2023/09/10 09:38:33;;;;;;;11.40;10.17;;;;;;;26.58;66.92;158210.72;5075129;28;20494;-76
2023/09/10 09:41:03;;;;;;;12.20;11.00;;;;;;;26.69;66.34;158238.22;5078612;28;20485;-76
2023/09/10 09:43:33;;;;;;;10.53;9.53;;;;;;;26.65;67.84;158229.03;5079021;28;20522;-76
2023/09/10 09:46:00;;;;;;;11.47;10.57;;;;;;;26.74;68.04;158252.59;5075868;28;20544;-76
2023/09/10 09:48:26;;;;;;;11.90;10.80;;;;;;;26.66;67.84;158230.34;5077614;28;21256;-76
2023/09/10 09:50:57;;;;;;;14.47;10.70;;;;;;;26.65;67.61;158227.72;5059815;28;20993;-77
2023/09/10 09:53:24;;;;;;;12.33;10.27;;;;;;;26.65;67.37;158229.03;5075114;28;20801;-76
2023/09/10 09:55:54;;;;;;;11.20;10.10;;;;;;;26.81;66.35;158269.69;5079366;28;20456;-77
2023/09/10 09:58:21;;;;;;;10.93;9.83;;;;;;;26.83;65.96;158276.25;5074360;28;20457;-76
2023/09/10 10:00:49;;;;;;;10.17;9.17;;;;;;;27.00;65.53;158319.47;5077965;28;20464;-77
2023/09/10 10:03:18;;;;;;;10.30;9.37;;;;;;;27.01;63.38;158323.38;5076216;28;20457;-76
2023/09/10 10:05:44;;;;;;;10.20;9.30;;;;;;;26.93;63.65;158301.09;5074483;28;20465;-76
2023/09/10 10:08:11;;;;;;;9.33;8.43;;;;;;;26.97;62.71;158311.63;5076863;28;20465;-76
2023/09/10 10:10:46;;;;;;;10.87;8.87;;;;;;;27.04;62.53;158329.94;5074146;28;20452;-76
2023/09/10 10:13:17;;;;;;;10.60;9.50;;;;;;;27.18;61.58;158366.63;5075072;28;20987;-76
2023/09/10 10:15:44;;;;;;;10.33;9.33;;;;;;;27.15;59.98;158360.09;5070917;28;20448;-76
2023/09/10 10:18:13;;;;;;;11.83;8.60;;;;;;;27.10;60.53;158345.69;5072245;28;20961;-76
2023/09/10 10:20:40;;;;;;;10.27;9.27;;;;;;;27.06;60.48;158335.16;5071744;28;21105;-76
2023/09/10 10:23:08;;;;;;;9.97;8.93;;;;;;;27.05;59.42;158332.56;5073278;28;20457;-76
2023/09/10 10:25:35;;;;;;;9.57;8.63;;;;;;;27.08;60.31;158340.44;5080038;28;20438;-76
2023/09/10 10:28:07;;;;;;;10.50;8.90;;;;;;;27.17;58.98;158364.00;5057713;28;20465;-82
2023/09/10 10:30:35;;;;;;;10.40;9.40;;;;;;;27.03;58.91;158328.63;5072122;28;20460;-82
2023/09/10 10:33:04;;;;;;;9.63;8.73;;;;;;;27.05;59.11;158332.56;5077210;28;20453;-82
2023/09/10 10:35:35;;;;;;;9.50;8.60;;;;;;;27.16;59.82;158361.41;5074331;28;20477;-82
2023/09/10 10:38:03;;;;;;;9.43;8.53;;;;;;;27.19;59.05;158369.28;5075877;28;20449;-82
2023/09/10 10:40:32;;;;;;;9.20;8.30;;;;;;;27.22;59.24;158377.09;5077860;28;20477;-82
2023/09/10 10:43:04;;;;;;;10.67;9.60;;;;;;;27.25;59.51;158384.97;5088387;28;20477;-82
2023/09/10 10:45:31;;;;;;;12.93;9.43;;;;;;;27.36;59.33;158413.81;5074582;28;20441;-82
2023/09/10 10:48:00;;;;;;;9.63;8.83;;;;;;;27.35;58.75;158411.16;5071219;28;20469;-82
2023/09/10 10:50:28;;;;;;;11.70;10.60;;;;;;;27.35;59.11;158411.16;5077836;28;20442;-82
2023/09/10 10:53:03;;;;;;;10.83;9.73;;;;;;;27.36;59.16;158413.81;5071690;28;20442;-83
2023/09/10 10:55:30;;;;;;;10.27;9.20;;;;;;;27.32;59.41;158403.34;5076062;28;20460;-82
2023/09/10 10:57:57;;;;;;;10.13;9.13;;;;;;;27.25;59.41;158384.97;5059113;28;20453;-82
2023/09/10 11:00:24;;;;;;;11.30;9.70;;;;;;;27.25;60.17;158384.97;5070067;28;20470;-82
2023/09/10 11:03:09;;;;;;;11.70;10.50;;;;;;;27.34;60.63;158408.56;5068917;28;20453;-82
2023/09/10 11:06:05;;;;;;;10.90;9.77;;;;;;;27.46;61.23;158440.06;5071887;28;20488;-82
2023/09/10 11:08:34;;;;;;;10.57;9.57;;;;;;;27.50;61.34;158450.56;5071778;28;20564;-82
2023/09/10 11:11:03;;;;;;;11.87;10.60;;;;;;;27.57;60.15;158467.56;5075061;28;20447;-82
2023/09/10 11:13:30;;;;;;;11.53;10.43;;;;;;;27.51;60.88;158453.16;5071214;28;20457;-82
2023/09/10 11:16:16;;;;;;;11.13;10.03;;;;;;;27.61;59.36;158479.41;5073084;28;20805;-82
2023/09/10 11:18:43;;;;;;;10.63;9.73;;;;;;;27.53;60.37;158458.44;5071199;28;20820;-82